Twin Bridges, Montana
Current Conditions -  °F | °C
As of 7:53 AM on Monday 24 Nov 2014 (Local Time) from KDLN Reporting Station
Scattered Clouds Scattered Clouds  
Wind Chill: 14°   Ceiling: Unl
Heat Index: 24°   Visibility: 10mi
Dew Point: 16°   Wind: 9mph
Humidity: 71%   Direction: 200°SSW
Pressure: 30.16"   Gusts: NA
Location:  45.54°N, 112.33°W
Report Text: KDLN 241453Z AUTO 20008KT 10SM SCT080 M04/M09 A3016 RMK AO2 SLP248 T10441089 51025
Loading
Personal Weather Stations






























Interactive Weather Map New forecast layout! Learn more

10-Day Weather Forecast

Advertisements
Track Severe Weather on mobile